Time;durP1;ratioP1;P1;durP2;ratioP2;P2;SDS_P1;SDS_P2;PMS_P1;PMS_P2;Temp;Humidity;BMP_temperature;BMP_pressure;BME280_temperature;BME280_humidity;BME280_pressure;Samples;Min_cycle;Max_cycle;Signal;HPM_P1;HPM_P2
2022/12/10 00:01:22;;;;;;;66.30;37.25;;;;;;;;;;5125941;27;20031;-71
2022/12/10 00:03:48;;;;;;;81.35;40.72;;;;;;;;;;5110206;27;20031;-72
2022/12/10 00:06:15;;;;;;;65.60;36.35;;;;;;;;;;5104473;27;20043;-72
2022/12/10 00:08:41;;;;;;;74.85;38.17;;;;;;;;;;5121715;27;20063;-71
2022/12/10 00:11:09;;;;;;;67.45;38.85;;;;;;;;;;5109402;27;20140;-71
2022/12/10 00:13:36;;;;;;;68.93;40.33;;;;;;;;;;5121564;27;20092;-71
2022/12/10 00:16:03;;;;;;;63.53;36.10;;;;;;;;;;5109739;27;20051;-73
2022/12/10 00:18:29;;;;;;;69.13;40.17;;;;;;;;;;5125524;27;20110;-71
2022/12/10 00:20:55;;;;;;;73.95;39.30;;;;;;;;;;5122379;27;20122;-70
2022/12/10 00:23:21;;;;;;;70.25;37.65;;;;;;;;;;5123326;27;20122;-69
2022/12/10 00:25:47;;;;;;;63.97;39.80;;;;;;;;;;5110399;27;20039;-71
2022/12/10 00:28:14;;;;;;;67.35;38.65;;;;;;;;;;5128435;27;20413;-70
2022/12/10 00:30:40;;;;;;;67.88;40.13;;;;;;;;;;5127971;27;20042;-71
2022/12/10 00:33:06;;;;;;;73.25;38.83;;;;;;;;;;5122202;27;20039;-70
2022/12/10 00:35:35;;;;;;;74.55;41.78;;;;;;;;;;5124245;27;20058;-71
2022/12/10 00:38:01;;;;;;;90.65;45.35;;;;;;;;;;5121287;27;20032;-71
2022/12/10 00:40:27;;;;;;;84.88;43.05;;;;;;;;;;5122608;27;20035;-71
2022/12/10 00:42:54;;;;;;;71.15;38.70;;;;;;;;;;5110399;28;20044;-71
2022/12/10 00:45:20;;;;;;;83.53;41.65;;;;;;;;;;5128759;28;20358;-72
2022/12/10 00:47:46;;;;;;;76.88;41.97;;;;;;;;;;5129521;28;20039;-71
2022/12/10 00:50:14;;;;;;;85.32;45.03;;;;;;;;;;5122771;28;20477;-72
2022/12/10 00:52:40;;;;;;;76.10;40.55;;;;;;;;;;5125945;28;20046;-71
2022/12/10 00:55:07;;;;;;;72.65;42.95;;;;;;;;;;5120915;28;20512;-71
2022/12/10 00:57:33;;;;;;;76.38;40.65;;;;;;;;;;5126292;28;20051;-72
2022/12/10 00:59:59;;;;;;;83.40;43.33;;;;;;;;;;5122788;28;20038;-72
2022/12/10 01:02:25;;;;;;;87.00;44.05;;;;;;;;;;5111557;28;20472;-72
2022/12/10 01:04:54;;;;;;;76.18;43.70;;;;;;;;;;5125722;28;20032;-71
2022/12/10 01:07:20;;;;;;;81.30;43.92;;;;;;;;;;5109339;28;20039;-72
2022/12/10 01:09:46;;;;;;;88.72;45.65;;;;;;;;;;5127583;28;20118;-72
2022/12/10 01:12:12;;;;;;;87.80;44.63;;;;;;;;;;5110786;28;20047;-71
2022/12/10 01:14:38;;;;;;;81.55;43.28;;;;;;;;;;5117797;27;20035;-71
2022/12/10 01:17:05;;;;;;;79.13;44.33;;;;;;;;;;5129279;27;20035;-71
2022/12/10 01:19:32;;;;;;;94.10;45.72;;;;;;;;;;5126390;27;20092;-71
2022/12/10 01:21:58;;;;;;;95.35;48.05;;;;;;;;;;5122390;27;20027;-71
2022/12/10 01:24:28;;;;;;;90.35;45.38;;;;;;;;;;5122785;27;20059;-71
2022/12/10 01:26:57;;;;;;;97.80;47.15;;;;;;;;;;5109023;27;20099;-73
2022/12/10 01:29:23;;;;;;;97.88;49.03;;;;;;;;;;5122936;27;20696;-71
2022/12/10 01:31:53;;;;;;;84.05;46.08;;;;;;;;;;5108913;27;20043;-72
2022/12/10 01:34:19;;;;;;;97.30;45.83;;;;;;;;;;5126311;27;20032;-71
2022/12/10 01:36:48;;;;;;;95.28;42.88;;;;;;;;;;5124411;27;20051;-71
2022/12/10 01:39:16;;;;;;;96.28;45.45;;;;;;;;;;5112465;27;20076;-72
2022/12/10 01:41:43;;;;;;;91.28;46.33;;;;;;;;;;5123685;27;20450;-72
2022/12/10 01:44:09;;;;;;;93.10;46.20;;;;;;;;;;5121860;27;20050;-72
2022/12/10 01:46:37;;;;;;;84.13;45.60;;;;;;;;;;5128478;27;20024;-71
2022/12/10 01:49:05;;;;;;;92.47;45.80;;;;;;;;;;5118479;27;20071;-72
2022/12/10 01:51:33;;;;;;;84.78;45.70;;;;;;;;;;5126325;27;20031;-72
2022/12/10 01:54:00;;;;;;;85.13;45.53;;;;;;;;;;5128234;27;20479;-72
2022/12/10 01:56:27;;;;;;;86.15;45.25;;;;;;;;;;5113669;27;20526;-71
2022/12/10 01:58:56;;;;;;;77.18;41.95;;;;;;;;;;5131851;27;20039;-71
2022/12/10 02:01:28;;;;;;;80.00;41.10;;;;;;;;;;5111425;27;20114;-70
2022/12/10 02:04:17;;;;;;;80.97;42.60;;;;;;;;;;5122623;27;20054;-71
2022/12/10 02:06:43;;;;;;;77.95;41.25;;;;;;;;;;5112490;27;20168;-71
2022/12/10 02:09:28;;;;;;;86.40;44.83;;;;;;;;;;5132357;27;20560;-72
2022/12/10 02:11:57;;;;;;;83.47;45.20;;;;;;;;;;5107627;27;20059;-72
2022/12/10 02:14:28;;;;;;;81.22;44.70;;;;;;;;;;5127274;27;20599;-71
2022/12/10 02:17:01;;;;;;;79.60;45.25;;;;;;;;;;5113282;27;20096;-71
2022/12/10 02:19:39;;;;;;;80.43;41.55;;;;;;;;;;5113983;27;20143;-71
2022/12/10 02:22:07;;;;;;;89.20;45.15;;;;;;;;;;5131433;27;20042;-71
2022/12/10 02:24:34;;;;;;;88.28;45.85;;;;;;;;;;5119222;27;20095;-71
2022/12/10 02:27:19;;;;;;;104.05;48.45;;;;;;;;;;5111860;27;20187;-72
2022/12/10 02:29:47;;;;;;;97.15;46.90;;;;;;;;;;5126501;27;20046;-71
2022/12/10 02:32:15;;;;;;;91.70;45.95;;;;;;;;;;5128639;27;20096;-72
2022/12/10 02:34:42;;;;;;;85.97;44.33;;;;;;;;;;5108759;27;20039;-71
2022/12/10 02:37:11;;;;;;;90.15;47.00;;;;;;;;;;5128294;27;20035;-71
2022/12/10 02:39:40;;;;;;;93.47;47.92;;;;;;;;;;5129800;27;20051;-71
2022/12/10 02:42:07;;;;;;;79.07;44.85;;;;;;;;;;5122957;27;20047;-72
2022/12/10 02:44:36;;;;;;;86.50;45.45;;;;;;;;;;5129299;27;20035;-72
2022/12/10 02:47:06;;;;;;;87.15;46.08;;;;;;;;;;5118701;27;20464;-71
2022/12/10 02:49:32;;;;;;;100.15;45.80;;;;;;;;;;5098268;27;20039;-71
2022/12/10 02:51:59;;;;;;;83.95;44.17;;;;;;;;;;5113161;27;20070;-71
2022/12/10 02:54:40;;;;;;;88.47;44.47;;;;;;;;;;5109767;28;20493;-72
2022/12/10 02:57:14;;;;;;;84.35;43.28;;;;;;;;;;5109638;27;20192;-71
2022/12/10 02:59:59;;;;;;;86.18;44.50;;;;;;;;;;5124612;27;20640;-71
2022/12/10 03:02:32;;;;;;;79.75;41.30;;;;;;;;;;5124111;27;20039;-71
2022/12/10 03:05:02;;;;;;;92.82;44.20;;;;;;;;;;5127827;27;20399;-71
2022/12/10 03:07:37;;;;;;;85.30;43.83;;;;;;;;;;5112731;27;20035;-71
2022/12/10 03:10:10;;;;;;;97.70;45.30;;;;;;;;;;5125387;27;20023;-73
2022/12/10 03:12:39;;;;;;;103.57;44.53;;;;;;;;;;5123180;27;20039;-72
2022/12/10 03:15:09;;;;;;;87.00;42.08;;;;;;;;;;5118860;27;20039;-72
2022/12/10 03:17:36;;;;;;;92.53;43.60;;;;;;;;;;5123756;27;20370;-71
2022/12/10 03:20:08;;;;;;;97.80;45.45;;;;;;;;;;5107275;27;20035;-72
2022/12/10 03:22:35;;;;;;;101.32;50.00;;;;;;;;;;5121920;27;20038;-71
2022/12/10 03:25:02;;;;;;;93.93;44.67;;;;;;;;;;5124969;27;20035;-72
2022/12/10 03:27:29;;;;;;;87.07;45.95;;;;;;;;;;5124649;27;20441;-72
2022/12/10 03:30:00;;;;;;;83.40;42.90;;;;;;;;;;5126693;27;20088;-73
2022/12/10 03:32:28;;;;;;;98.30;45.22;;;;;;;;;;5121034;27;20122;-71
2022/12/10 03:34:55;;;;;;;98.97;44.55;;;;;;;;;;5122157;27;20477;-72
2022/12/10 03:37:22;;;;;;;90.85;47.25;;;;;;;;;;5125809;27;20159;-72
2022/12/10 03:39:48;;;;;;;81.78;43.40;;;;;;;;;;5106266;27;20507;-72
2022/12/10 03:42:14;;;;;;;106.78;45.00;;;;;;;;;;5125828;27;20047;-71
2022/12/10 03:44:41;;;;;;;85.78;44.78;;;;;;;;;;5128269;27;20043;-71
2022/12/10 03:47:08;;;;;;;82.40;42.45;;;;;;;;;;5121067;27;20089;-71
2022/12/10 03:49:34;;;;;;;114.28;45.88;;;;;;;;;;5124726;27;20386;-71
2022/12/10 03:52:00;;;;;;;124.70;46.58;;;;;;;;;;5124395;27;20548;-72
2022/12/10 03:54:26;;;;;;;134.98;50.95;;;;;;;;;;5116871;27;20545;-71
2022/12/10 03:56:53;;;;;;;141.20;46.60;;;;;;;;;;5103681;27;20055;-71
2022/12/10 03:59:19;;;;;;;162.02;51.05;;;;;;;;;;5123435;27;20412;-71
2022/12/10 04:01:45;;;;;;;154.77;53.92;;;;;;;;;;5123458;27;20080;-71
2022/12/10 04:04:11;;;;;;;142.32;50.88;;;;;;;;;;5124123;27;20459;-71
2022/12/10 04:06:38;;;;;;;138.75;52.85;;;;;;;;;;5126767;27;20118;-72
2022/12/10 04:09:05;;;;;;;129.05;53.55;;;;;;;;;;5106456;27;20043;-71
2022/12/10 04:11:31;;;;;;;144.93;51.75;;;;;;;;;;5124609;27;20046;-71
2022/12/10 04:16:42;;;;;;;116.38;50.42;;;;;;;;;;5117426;27;20043;-71
2022/12/10 04:19:10;;;;;;;161.30;56.97;;;;;;;;;;5129169;27;20035;-71
2022/12/10 04:27:09;;;;;;;192.27;56.35;;;;;;;;;;5119226;27;20043;-71
2022/12/10 04:29:35;;;;;;;205.35;58.55;;;;;;;;;;5118594;27;20038;-71
2022/12/10 04:32:01;;;;;;;140.23;51.83;;;;;;;;;;5122518;27;20031;-72
2022/12/10 04:34:27;;;;;;;123.85;50.88;;;;;;;;;;5090896;27;20039;-72
2022/12/10 04:36:57;;;;;;;183.70;58.53;;;;;;;;;;5124618;27;20126;-71
2022/12/10 04:39:23;;;;;;;251.32;64.68;;;;;;;;;;5116275;27;20071;-72
2022/12/10 04:41:50;;;;;;;194.63;62.42;;;;;;;;;;5122499;27;20051;-71
2022/12/10 04:44:16;;;;;;;118.55;52.17;;;;;;;;;;5107441;28;20046;-72
2022/12/10 04:46:42;;;;;;;195.52;68.05;;;;;;;;;;5126191;28;20076;-71
2022/12/10 04:49:08;;;;;;;162.32;58.70;;;;;;;;;;5109210;28;20074;-72
2022/12/10 04:51:35;;;;;;;167.52;60.63;;;;;;;;;;5109225;28;20049;-71
2022/12/10 04:54:01;;;;;;;180.65;62.90;;;;;;;;;;5127325;28;20043;-71
2022/12/10 04:56:27;;;;;;;186.48;62.78;;;;;;;;;;5127115;28;20062;-73
2022/12/10 04:58:56;;;;;;;157.73;58.47;;;;;;;;;;5127661;28;20036;-72
2022/12/10 05:01:22;;;;;;;200.88;57.70;;;;;;;;;;5116445;28;20075;-72
2022/12/10 05:03:48;;;;;;;127.97;52.72;;;;;;;;;;5124033;28;20071;-72
2022/12/10 05:06:16;;;;;;;130.68;54.03;;;;;;;;;;5111005;28;20496;-72
2022/12/10 05:08:43;;;;;;;123.18;48.67;;;;;;;;;;5126523;28;20031;-72
2022/12/10 05:11:10;;;;;;;222.73;62.42;;;;;;;;;;5124905;28;20054;-72
2022/12/10 05:13:37;;;;;;;163.32;54.15;;;;;;;;;;5102515;28;20045;-72
2022/12/10 05:16:04;;;;;;;153.82;52.00;;;;;;;;;;5106680;28;20592;-72
2022/12/10 05:18:30;;;;;;;173.90;56.38;;;;;;;;;;5123464;28;20081;-72
2022/12/10 05:20:59;;;;;;;215.70;60.10;;;;;;;;;;5089935;28;20541;-72
2022/12/10 05:23:28;;;;;;;249.55;58.78;;;;;;;;;;5103713;28;20039;-72
2022/12/10 05:25:58;;;;;;;295.50;58.65;;;;;;;;;;5119650;28;20028;-72
2022/12/10 05:28:24;;;;;;;100.22;45.00;;;;;;;;;;5122824;28;20039;-72
2022/12/10 05:30:50;;;;;;;181.88;49.50;;;;;;;;;;5110301;28;20043;-73
2022/12/10 05:33:17;;;;;;;127.13;40.08;;;;;;;;;;5114312;28;20500;-72
2022/12/10 05:35:43;;;;;;;181.07;45.25;;;;;;;;;;5110319;28;20047;-72
2022/12/10 05:38:10;;;;;;;187.32;49.38;;;;;;;;;;5128371;28;20483;-72
2022/12/10 05:40:37;;;;;;;202.02;48.47;;;;;;;;;;5123049;28;20039;-72
2022/12/10 05:43:03;;;;;;;227.35;53.60;;;;;;;;;;5118686;28;20222;-72
2022/12/10 05:45:29;;;;;;;124.22;38.38;;;;;;;;;;5125978;28;20035;-72
2022/12/10 05:47:55;;;;;;;169.15;37.03;;;;;;;;;;5123437;28;20043;-72
2022/12/10 05:50:21;;;;;;;139.80;39.45;;;;;;;;;;5108841;28;20090;-72
2022/12/10 05:52:47;;;;;;;112.03;36.05;;;;;;;;;;5106092;28;20075;-72
2022/12/10 05:55:13;;;;;;;104.65;37.78;;;;;;;;;;5106581;28;20035;-73
2022/12/10 05:57:40;;;;;;;141.18;37.47;;;;;;;;;;5126669;28;20461;-73
2022/12/10 06:00:06;;;;;;;129.30;38.38;;;;;;;;;;5121363;27;20036;-73
2022/12/10 06:02:35;;;;;;;164.30;45.75;;;;;;;;;;5127005;27;20043;-72
2022/12/10 06:05:01;;;;;;;172.02;40.28;;;;;;;;;;5130361;27;20046;-73
2022/12/10 06:07:27;;;;;;;134.13;40.05;;;;;;;;;;5120268;27;20080;-73
2022/12/10 06:09:53;;;;;;;173.63;40.45;;;;;;;;;;5103136;27;20035;-73
2022/12/10 06:12:19;;;;;;;176.68;44.13;;;;;;;;;;5120532;27;20080;-73
2022/12/10 06:14:46;;;;;;;183.77;41.08;;;;;;;;;;5104660;27;20425;-73
2022/12/10 06:17:12;;;;;;;151.00;36.80;;;;;;;;;;5088691;27;20082;-73
2022/12/10 06:19:38;;;;;;;145.77;42.08;;;;;;;;;;5108421;27;20043;-73
2022/12/10 06:22:05;;;;;;;129.73;37.65;;;;;;;;;;5119134;27;20042;-73
2022/12/10 06:24:31;;;;;;;125.18;36.70;;;;;;;;;;5109892;27;20114;-73
2022/12/10 06:26:57;;;;;;;169.55;41.28;;;;;;;;;;5125436;27;20039;-73
2022/12/10 06:29:23;;;;;;;191.15;42.50;;;;;;;;;;5123457;27;20070;-73
2022/12/10 06:31:49;;;;;;;119.30;36.53;;;;;;;;;;5109856;27;20493;-73
2022/12/10 06:34:16;;;;;;;158.18;40.65;;;;;;;;;;5122873;27;20035;-72
2022/12/10 06:36:42;;;;;;;105.07;38.58;;;;;;;;;;5114045;27;20378;-72
2022/12/10 06:39:08;;;;;;;96.13;37.22;;;;;;;;;;5116169;27;20038;-73
2022/12/10 06:41:34;;;;;;;164.93;44.50;;;;;;;;;;5116436;27;20052;-73
2022/12/10 06:44:00;;;;;;;184.38;44.33;;;;;;;;;;5115333;27;20398;-72
2022/12/10 06:46:29;;;;;;;199.63;46.22;;;;;;;;;;5118011;27;20035;-73
2022/12/10 06:48:56;;;;;;;118.25;36.63;;;;;;;;;;5120329;27;20054;-73
2022/12/10 06:51:22;;;;;;;109.55;35.22;;;;;;;;;;5116384;27;20039;-73
2022/12/10 06:53:48;;;;;;;96.82;35.35;;;;;;;;;;5118575;27;20178;-73
2022/12/10 06:56:18;;;;;;;211.27;45.80;;;;;;;;;;5121234;27;20082;-73
2022/12/10 06:58:46;;;;;;;166.93;41.13;;;;;;;;;;5089113;27;20412;-74
2022/12/10 07:01:15;;;;;;;86.93;32.75;;;;;;;;;;5108339;27;20035;-73
2022/12/10 07:03:41;;;;;;;114.22;38.42;;;;;;;;;;5106775;27;20043;-73
2022/12/10 07:06:08;;;;;;;170.50;47.42;;;;;;;;;;5122607;27;20047;-73
2022/12/10 07:08:35;;;;;;;214.65;43.03;;;;;;;;;;5082155;27;20043;-73
2022/12/10 07:11:05;;;;;;;148.73;39.20;;;;;;;;;;5116605;27;20500;-73
2022/12/10 07:13:31;;;;;;;104.65;35.72;;;;;;;;;;5105682;27;20105;-73
2022/12/10 07:15:57;;;;;;;173.57;43.05;;;;;;;;;;5099461;27;20055;-73
2022/12/10 07:18:24;;;;;;;193.35;47.03;;;;;;;;;;5121543;27;20077;-73
2022/12/10 07:20:50;;;;;;;158.10;42.85;;;;;;;;;;5119592;27;20429;-73
2022/12/10 07:23:16;;;;;;;201.52;43.47;;;;;;;;;;5115043;27;20039;-73
2022/12/10 07:25:42;;;;;;;188.15;44.95;;;;;;;;;;5104343;27;20039;-73
2022/12/10 07:28:08;;;;;;;208.02;46.97;;;;;;;;;;5118530;27;20112;-73
2022/12/10 07:30:34;;;;;;;212.93;45.97;;;;;;;;;;5118822;27;20536;-73
2022/12/10 07:33:00;;;;;;;190.02;43.55;;;;;;;;;;5103231;27;20496;-73
2022/12/10 07:35:27;;;;;;;217.38;49.47;;;;;;;;;;5115373;27;20045;-73
2022/12/10 07:37:53;;;;;;;155.20;46.03;;;;;;;;;;5114349;27;20095;-73
2022/12/10 07:40:19;;;;;;;242.05;48.88;;;;;;;;;;5115835;27;20035;-73
2022/12/10 07:42:45;;;;;;;84.32;36.53;;;;;;;;;;5123015;27;20090;-72
2022/12/10 07:45:11;;;;;;;199.43;46.97;;;;;;;;;;5119188;27;20035;-74
2022/12/10 07:47:38;;;;;;;192.18;43.85;;;;;;;;;;5098523;27;20156;-74
2022/12/10 07:50:05;;;;;;;191.75;54.08;;;;;;;;;;5122058;27;20035;-73
2022/12/10 07:52:32;;;;;;;166.32;44.25;;;;;;;;;;5122487;27;20114;-73
2022/12/10 07:54:58;;;;;;;164.85;45.83;;;;;;;;;;5122612;27;20028;-74
2022/12/10 07:57:24;;;;;;;150.60;45.42;;;;;;;;;;5103184;27;20043;-73
2022/12/10 07:59:50;;;;;;;156.85;40.97;;;;;;;;;;5125018;27;20104;-73
2022/12/10 08:02:16;;;;;;;181.07;44.92;;;;;;;;;;5119915;27;20068;-73
2022/12/10 08:04:42;;;;;;;174.13;46.00;;;;;;;;;;5125389;27;20074;-74
2022/12/10 08:07:08;;;;;;;167.88;43.95;;;;;;;;;;5123402;27;20110;-72
2022/12/10 08:09:35;;;;;;;210.80;49.90;;;;;;;;;;5116607;27;20039;-72
2022/12/10 08:12:01;;;;;;;199.00;49.75;;;;;;;;;;5121565;27;20130;-73
2022/12/10 08:14:27;;;;;;;160.52;46.35;;;;;;;;;;5104694;27;21326;-73
2022/12/10 08:16:53;;;;;;;211.95;48.78;;;;;;;;;;5098929;28;20043;-72
2022/12/10 08:19:19;;;;;;;185.15;44.17;;;;;;;;;;5106950;28;20697;-73
2022/12/10 08:21:45;;;;;;;175.48;45.72;;;;;;;;;;5116190;27;20058;-73
2022/12/10 08:24:11;;;;;;;164.05;44.50;;;;;;;;;;5101130;27;20285;-73
2022/12/10 08:26:38;;;;;;;151.65;40.92;;;;;;;;;;5108860;27;20035;-73
2022/12/10 08:29:04;;;;;;;197.57;52.72;;;;;;;;;;5116119;27;20041;-73
2022/12/10 08:31:30;;;;;;;189.15;41.45;;;;;;;;;;5116386;27;20039;-74
2022/12/10 08:33:56;;;;;;;194.57;47.17;;;;;;;;;;5116142;27;20639;-73
2022/12/10 08:36:23;;;;;;;233.50;49.00;;;;;;;;;;5116868;27;20042;-73
2022/12/10 08:38:49;;;;;;;214.45;49.72;;;;;;;;;;5121002;27;20532;-73
2022/12/10 08:41:17;;;;;;;214.77;45.03;;;;;;;;;;5123169;27;20055;-73
2022/12/10 08:43:44;;;;;;;227.75;46.47;;;;;;;;;;5099165;27;20107;-73
2022/12/10 08:46:11;;;;;;;215.20;47.42;;;;;;;;;;5102071;28;20043;-75
2022/12/10 08:48:37;;;;;;;146.30;38.47;;;;;;;;;;5096762;28;20512;-73
2022/12/10 08:51:03;;;;;;;220.13;47.28;;;;;;;;;;5116073;28;20047;-74
2022/12/10 08:53:29;;;;;;;219.25;45.90;;;;;;;;;;5117754;28;20047;-73
2022/12/10 08:55:55;;;;;;;108.47;35.80;;;;;;;;;;5118834;28;20092;-72
2022/12/10 08:58:22;;;;;;;172.18;41.53;;;;;;;;;;5116448;28;20043;-73
2022/12/10 09:00:49;;;;;;;180.32;42.17;;;;;;;;;;5098176;28;20114;-73
2022/12/10 09:03:15;;;;;;;169.45;41.08;;;;;;;;;;5117592;28;20043;-73
2022/12/10 09:05:42;;;;;;;206.23;43.90;;;;;;;;;;5117531;28;20670;-73
2022/12/10 09:08:08;;;;;;;124.38;36.00;;;;;;;;;;5121625;28;20054;-73
2022/12/10 09:10:36;;;;;;;131.43;38.60;;;;;;;;;;5118970;28;20042;-73
2022/12/10 09:13:02;;;;;;;144.27;37.00;;;;;;;;;;5122825;28;20039;-72
2022/12/10 09:15:28;;;;;;;159.77;40.28;;;;;;;;;;5121665;28;20568;-73
2022/12/10 09:17:54;;;;;;;109.57;31.45;;;;;;;;;;5125188;28;20126;-73
2022/12/10 09:20:20;;;;;;;202.15;41.15;;;;;;;;;;5105494;28;20042;-75
2022/12/10 09:22:47;;;;;;;91.72;34.47;;;;;;;;;;5124393;28;20035;-73
2022/12/10 09:25:16;;;;;;;183.85;39.90;;;;;;;;;;5121765;28;20393;-72
2022/12/10 09:27:43;;;;;;;139.70;36.53;;;;;;;;;;5103957;28;20096;-73
2022/12/10 09:30:10;;;;;;;107.00;32.90;;;;;;;;;;5102293;28;20038;-73
2022/12/10 09:32:36;;;;;;;179.95;37.85;;;;;;;;;;5117151;28;20296;-73
2022/12/10 09:35:02;;;;;;;182.25;38.38;;;;;;;;;;5104746;27;20152;-74
2022/12/10 09:37:28;;;;;;;215.90;40.42;;;;;;;;;;5108831;27;20135;-74
2022/12/10 09:39:54;;;;;;;160.43;36.45;;;;;;;;;;5100087;27;20363;-73
2022/12/10 09:42:20;;;;;;;107.38;31.60;;;;;;;;;;5073083;27;20515;-73
2022/12/10 09:44:46;;;;;;;109.45;32.63;;;;;;;;;;5122414;27;20514;-73
2022/12/10 09:47:13;;;;;;;100.68;30.90;;;;;;;;;;5126404;27;20118;-74
2022/12/10 09:49:44;;;;;;;132.35;33.92;;;;;;;;;;5119313;27;20043;-73
2022/12/10 09:52:15;;;;;;;133.65;32.10;;;;;;;;;;5108029;27;20408;-74
2022/12/10 09:54:44;;;;;;;173.68;36.78;;;;;;;;;;5097141;27;20050;-74
2022/12/10 09:57:25;;;;;;;130.55;35.63;;;;;;;;;;5113495;27;20043;-74
2022/12/10 09:59:52;;;;;;;94.43;29.08;;;;;;;;;;5123983;27;20138;-74
2022/12/10 10:02:21;;;;;;;135.77;33.80;;;;;;;;;;5124693;27;20027;-74
2022/12/10 10:04:47;;;;;;;163.80;35.67;;;;;;;;;;5124653;27;20034;-73
2022/12/10 10:07:33;;;;;;;67.78;28.65;;;;;;;;;;5118472;27;20580;-74
2022/12/10 10:10:01;;;;;;;91.20;29.52;;;;;;;;;;5083937;28;20039;-74
2022/12/10 10:12:31;;;;;;;89.60;31.15;;;;;;;;;;5121801;27;20066;-74
2022/12/10 10:14:58;;;;;;;86.05;32.10;;;;;;;;;;5125241;27;20503;-73
2022/12/10 10:17:29;;;;;;;141.55;36.35;;;;;;;;;;5122598;27;20631;-74
2022/12/10 10:19:55;;;;;;;218.50;38.70;;;;;;;;;;5121644;27;20545;-74
2022/12/10 10:22:22;;;;;;;77.75;29.73;;;;;;;;;;5104271;27;20038;-74
2022/12/10 10:24:48;;;;;;;113.07;31.00;;;;;;;;;;5123339;27;20070;-74
2022/12/10 10:27:26;;;;;;;152.85;35.40;;;;;;;;;;5121321;27;20403;-74
2022/12/10 10:29:53;;;;;;;136.50;33.58;;;;;;;;;;5120222;27;20091;-74
2022/12/10 10:32:19;;;;;;;128.35;34.22;;;;;;;;;;5119716;27;20039;-74
2022/12/10 10:34:46;;;;;;;130.30;34.50;;;;;;;;;;5120487;27;20032;-74
2022/12/10 10:37:16;;;;;;;140.05;34.97;;;;;;;;;;5118052;27;20126;-74
2022/12/10 10:39:46;;;;;;;118.25;29.38;;;;;;;;;;5126474;27;20046;-74
2022/12/10 10:42:18;;;;;;;117.07;31.88;;;;;;;;;;5117944;27;20515;-74
2022/12/10 10:44:44;;;;;;;196.23;39.22;;;;;;;;;;5120328;27;20450;-75
2022/12/10 10:47:27;;;;;;;172.88;35.47;;;;;;;;;;5120362;27;20389;-74
2022/12/10 10:49:53;;;;;;;126.00;33.63;;;;;;;;;;5123128;27;20081;-74
2022/12/10 10:52:19;;;;;;;149.93;38.00;;;;;;;;;;5121628;27;20043;-74
2022/12/10 10:54:46;;;;;;;228.40;39.25;;;;;;;;;;5071694;27;20477;-75
2022/12/10 10:57:27;;;;;;;165.60;37.67;;;;;;;;;;5109626;27;20517;-74
2022/12/10 10:59:55;;;;;;;104.32;29.15;;;;;;;;;;5106513;27;20065;-74
2022/12/10 11:02:32;;;;;;;84.22;29.42;;;;;;;;;;5125204;27;20600;-74
2022/12/10 11:04:59;;;;;;;127.03;34.30;;;;;;;;;;5122358;27;20043;-74
2022/12/10 11:07:39;;;;;;;111.15;29.38;;;;;;;;;;5120344;27;20031;-74
2022/12/10 11:10:31;;;;;;;111.25;32.90;;;;;;;;;;5105112;27;20123;-74
2022/12/10 11:13:00;;;;;;;145.13;35.45;;;;;;;;;;5113548;27;20071;-74
2022/12/10 11:15:32;;;;;;;158.82;33.63;;;;;;;;;;5124294;27;20559;-74
2022/12/10 11:17:58;;;;;;;97.80;29.20;;;;;;;;;;5102545;27;20461;-74
2022/12/10 11:20:26;;;;;;;121.90;31.10;;;;;;;;;;5119152;27;20434;-74
2022/12/10 11:22:57;;;;;;;179.70;38.00;;;;;;;;;;5123774;27;20385;-74
2022/12/10 11:25:33;;;;;;;137.43;35.40;;;;;;;;;;5121716;27;20039;-74
2022/12/10 11:28:13;;;;;;;171.77;39.97;;;;;;;;;;5104982;27;20058;-74
2022/12/10 11:30:43;;;;;;;120.68;36.05;;;;;;;;;;5119568;27;20688;-74
2022/12/10 11:33:22;;;;;;;164.05;37.50;;;;;;;;;;5124597;27;20126;-74
2022/12/10 11:36:02;;;;;;;197.98;42.45;;;;;;;;;;5124443;27;20035;-74
2022/12/10 11:38:28;;;;;;;128.55;35.25;;;;;;;;;;5120927;27;20040;-74
2022/12/10 11:40:54;;;;;;;147.43;39.90;;;;;;;;;;5118455;27;20411;-74
2022/12/10 11:43:35;;;;;;;156.73;40.90;;;;;;;;;;5105338;27;20039;-74
2022/12/10 11:46:01;;;;;;;179.00;41.50;;;;;;;;;;5124978;27;20088;-74
2022/12/10 11:48:49;;;;;;;141.30;38.05;;;;;;;;;;5124821;27;20594;-74
2022/12/10 11:51:20;;;;;;;96.88;33.42;;;;;;;;;;5119683;27;20315;-74
2022/12/10 11:53:46;;;;;;;128.95;40.95;;;;;;;;;;5104175;28;20081;-74
2022/12/10 11:56:18;;;;;;;155.05;39.78;;;;;;;;;;5122229;27;20169;-74
2022/12/10 11:58:44;;;;;;;119.43;38.50;;;;;;;;;;5119727;27;20047;-74
2022/12/10 12:01:16;;;;;;;121.82;39.72;;;;;;;;;;5121280;27;20277;-74
2022/12/10 12:04:01;;;;;;;104.78;42.15;;;;;;;;;;5107314;27;20132;-74
2022/12/10 12:06:39;;;;;;;110.78;36.70;;;;;;;;;;5119182;27;20027;-74
2022/12/10 12:09:14;;;;;;;127.82;42.30;;;;;;;;;;5116212;27;20067;-74
2022/12/10 12:11:59;;;;;;;121.47;38.30;;;;;;;;;;5123502;27;20053;-73
2022/12/10 12:14:36;;;;;;;97.18;35.25;;;;;;;;;;5100590;27;20050;-74
2022/12/10 12:17:07;;;;;;;79.35;32.88;;;;;;;;;;5102129;27;20470;-74
2022/12/10 12:19:39;;;;;;;99.85;37.25;;;;;;;;;;5122978;27;20086;-75
2022/12/10 12:22:23;;;;;;;81.10;33.95;;;;;;;;;;5114307;27;20481;-75
2022/12/10 12:24:51;;;;;;;77.80;36.13;;;;;;;;;;5121138;27;20039;-75
2022/12/10 12:27:27;;;;;;;81.40;36.35;;;;;;;;;;5101813;27;20043;-71
2022/12/10 12:30:02;;;;;;;97.78;38.55;;;;;;;;;;5120240;27;20039;-74
2022/12/10 12:32:35;;;;;;;87.93;37.42;;;;;;;;;;5115549;27;20428;-74
2022/12/10 12:35:06;;;;;;;69.15;32.83;;;;;;;;;;5102474;27;20067;-74
2022/12/10 12:37:55;;;;;;;72.05;34.60;;;;;;;;;;5114908;27;20142;-74
2022/12/10 12:40:29;;;;;;;124.03;38.70;;;;;;;;;;5105178;27;20047;-74
2022/12/10 12:43:00;;;;;;;67.05;32.58;;;;;;;;;;5115825;27;20464;-75
2022/12/10 12:45:40;;;;;;;124.85;42.67;;;;;;;;;;5113540;27;20043;-74
2022/12/10 12:48:27;;;;;;;105.07;38.97;;;;;;;;;;5121858;28;20066;-74
2022/12/10 12:50:56;;;;;;;93.68;36.80;;;;;;;;;;5121665;28;20043;-74
2022/12/10 12:53:23;;;;;;;110.60;38.70;;;;;;;;;;5109739;28;20035;-74
2022/12/10 12:56:02;;;;;;;108.10;38.65;;;;;;;;;;5107840;28;20043;-74
2022/12/10 12:58:34;;;;;;;91.85;34.85;;;;;;;;;;5122829;28;20035;-74
2022/12/10 13:01:07;;;;;;;90.10;35.83;;;;;;;;;;5116330;28;20399;-75
2022/12/10 13:03:33;;;;;;;72.43;34.45;;;;;;;;;;5103956;28;20039;-74
2022/12/10 13:06:14;;;;;;;104.68;39.22;;;;;;;;;;5114190;28;20032;-74
2022/12/10 13:09:03;;;;;;;92.03;37.58;;;;;;;;;;5118558;27;20050;-74
2022/12/10 13:11:31;;;;;;;86.78;36.75;;;;;;;;;;5129630;27;20035;-73
2022/12/10 13:14:24;;;;;;;103.07;37.65;;;;;;;;;;5112651;27;20035;-74
2022/12/10 13:16:59;;;;;;;83.88;34.53;;;;;;;;;;5079444;27;20043;-74
2022/12/10 13:19:26;;;;;;;108.78;39.78;;;;;;;;;;5129985;27;20035;-74
2022/12/10 13:21:54;;;;;;;111.10;39.17;;;;;;;;;;5122524;27;20405;-74
2022/12/10 13:24:43;;;;;;;71.80;36.42;;;;;;;;;;5103974;27;20031;-74
2022/12/10 13:27:14;;;;;;;80.00;39.97;;;;;;;;;;5130030;27;20099;-74
2022/12/10 13:29:52;;;;;;;92.25;35.80;;;;;;;;;;5121061;27;20039;-74
2022/12/10 13:32:18;;;;;;;68.07;33.33;;;;;;;;;;5120874;27;20403;-74
2022/12/10 13:34:44;;;;;;;53.97;30.30;;;;;;;;;;5105081;27;20039;-75
2022/12/10 13:37:14;;;;;;;55.55;28.70;;;;;;;;;;5119842;27;20036;-74
2022/12/10 13:39:54;;;;;;;58.95;31.50;;;;;;;;;;5117381;27;20035;-75
2022/12/10 13:45:25;;;;;;;55.27;30.83;;;;;;;;;;5124003;27;20047;-74
2022/12/10 13:47:55;;;;;;;63.75;29.70;;;;;;;;;;5127949;27;20299;-74
2022/12/10 13:50:21;;;;;;;65.70;32.40;;;;;;;;;;5107286;28;20150;-74
2022/12/10 13:53:05;;;;;;;68.13;33.40;;;;;;;;;;5126645;27;20033;-74
2022/12/10 13:55:31;;;;;;;65.15;34.45;;;;;;;;;;5122691;27;20481;-74
2022/12/10 13:58:06;;;;;;;74.28;35.72;;;;;;;;;;5129126;27;20070;-74
2022/12/10 14:00:38;;;;;;;72.82;36.35;;;;;;;;;;5128300;27;20031;-75
2022/12/10 14:03:25;;;;;;;70.50;38.45;;;;;;;;;;5125755;27;20507;-74
2022/12/10 14:06:09;;;;;;;67.05;33.67;;;;;;;;;;5092948;27;20139;-74
2022/12/10 14:08:38;;;;;;;70.05;37.30;;;;;;;;;;5108884;28;20050;-75
2022/12/10 14:11:12;;;;;;;73.57;37.60;;;;;;;;;;5100782;27;20439;-75
2022/12/10 14:13:47;;;;;;;96.57;41.20;;;;;;;;;;5123310;27;20700;-75
2022/12/10 14:16:14;;;;;;;74.85;35.63;;;;;;;;;;5121428;27;20040;-75
2022/12/10 14:18:46;;;;;;;78.53;39.42;;;;;;;;;;5128122;27;20043;-75
2022/12/10 14:21:14;;;;;;;93.93;38.03;;;;;;;;;;5121608;27;20068;-73
2022/12/10 14:23:45;;;;;;;72.00;35.70;;;;;;;;;;5128331;27;20031;-75
2022/12/10 14:26:11;;;;;;;75.45;37.05;;;;;;;;;;5123576;27;20039;-75
2022/12/10 14:28:41;;;;;;;70.72;36.28;;;;;;;;;;5114139;27;20062;-75
2022/12/10 14:31:12;;;;;;;75.53;37.53;;;;;;;;;;5115249;27;20058;-75